メインページ
METAR-TAF:

METAR-TAF

空港 :

テルアビブ / ベン・グリオン, イスラエル

ベン・グリオン国際空港

緯度: 32-00N, 経度: 034-54E, 海抜: 40m

現時点の気象観測

当レポートは19分前の15:20(UTC)に作成
北西の風 9kt
気温 29°C
湿度 58%
気圧 1008 hPa
視程10km以上
高度1200ftの雲はほとんどない

METAR: LLBG 251520Z 31009KT 9999 FEW012 29/20 Q1008 NOSIG

時間: 18:39 (15:39 UTC)


TAF: 見つかりません

4,000以上の空港の気象観測と天気予報(METAR報とTAF報)

利用可能な観測所は地図上に黄色い丸と赤い丸で示す。

丸の上にカーソルを重ねると観測所名を参照できる。

次にクリックすると気象観測と天気予報を参照できる。

マップの切り替え:黒色「×」印の緑ボタンをクリックして拡大、「-」印の緑ボタンをクリックして縮小、緑色の三角印をクリックして隣りの地図に切り替え


METAR-TAF: